Time;durP1;ratioP1;P1;durP2;ratioP2;P2;SDS_P1;SDS_P2;PMS_P1;PMS_P2;Temp;Humidity;BMP_temperature;BMP_pressure;BME280_temperature;BME280_humidity;BME280_pressure;Samples;Min_cycle;Max_cycle;Signal;HPM_P1;HPM_P2
2021/10/24 00:00:45;;;;;;;1001.87;911.87;;;3.80;99.90;;;;;;4994274;28;20472;-86
2021/10/24 00:03:16;;;;;;;998.87;909.33;;;3.80;99.90;;;;;;4995334;28;20461;-86
2021/10/24 00:05:44;;;;;;;1012.67;923.10;;;3.80;99.90;;;;;;4995559;28;20537;-87
2021/10/24 00:08:13;;;;;;;1012.90;923.43;;;3.60;99.90;;;;;;4995117;28;20898;-86
2021/10/24 00:10:40;;;;;;;1011.00;921.43;;;3.70;99.90;;;;;;4995158;28;20462;-86
2021/10/24 00:13:07;;;;;;;1019.13;927.80;;;3.70;99.90;;;;;;4995004;28;20488;-87
2021/10/24 00:15:38;;;;;;;1023.03;931.37;;;3.60;99.90;;;;;;4994326;28;20521;-86
2021/10/24 00:18:08;;;;;;;1014.77;924.10;;;3.50;99.90;;;;;;4995148;28;20837;-87
2021/10/24 00:20:35;;;;;;;1014.87;924.40;;;3.60;99.90;;;;;;4995139;28;20454;-86
2021/10/24 00:23:05;;;;;;;1009.90;918.87;;;3.50;99.90;;;;;;4994964;28;20934;-86
2021/10/24 00:25:33;;;;;;;1011.93;921.27;;;3.50;99.90;;;;;;4994707;28;20456;-86
2021/10/24 00:28:02;;;;;;;1000.83;910.53;;;3.40;99.90;;;;;;4994801;28;20907;-86
2021/10/24 00:30:34;;;;;;;1015.53;925.00;;;3.50;99.90;;;;;;4993856;28;20664;-87
2021/10/24 00:33:08;;;;;;;1014.13;923.57;;;3.40;99.90;;;;;;4994677;28;20790;-86
2021/10/24 00:35:42;;;;;;;1024.57;932.73;;;3.30;99.90;;;;;;4994648;28;20490;-86
2021/10/24 00:38:15;;;;;;;1023.17;930.77;;;3.40;99.90;;;;;;4994462;28;20464;-87
2021/10/24 00:40:47;;;;;;;1019.70;927.70;;;3.30;99.90;;;;;;4994388;28;20458;-87
2021/10/24 00:43:14;;;;;;;1026.47;933.70;;;3.40;99.90;;;;;;4984961;28;20455;-85
2021/10/24 00:45:42;;;;;;;1043.57;950.83;;;3.20;99.90;;;;;;4990676;28;20541;-87
2021/10/24 00:48:10;;;;;;;1060.67;967.70;;;3.30;99.90;;;;;;4994257;28;20482;-87
2021/10/24 00:50:37;;;;;;;1055.60;962.00;;;3.30;99.90;;;;;;4994205;28;20516;-86
2021/10/24 00:53:07;;;;;;;1048.63;955.20;;;3.30;99.90;;;;;;4994503;28;20462;-86
2021/10/24 00:55:37;;;;;;;1051.63;958.30;;;3.30;99.90;;;;;;4984556;28;20467;-86
2021/10/24 00:58:09;;;;;;;1053.63;960.30;;;3.20;99.90;;;;;;4974958;28;20558;-86
2021/10/24 01:00:38;;;;;;;1063.00;969.57;;;3.20;99.90;;;;;;4973837;28;20895;-85
2021/10/24 01:03:08;;;;;;;1045.70;951.37;;;3.20;99.90;;;;;;4974761;28;20869;-85
2021/10/24 01:05:37;;;;;;;1024.53;931.43;;;3.10;99.90;;;;;;4974669;28;20479;-87
2021/10/24 01:08:15;;;;;;;1016.53;922.37;;;3.20;99.90;;;;;;4974441;28;20451;-87
2021/10/24 01:10:43;;;;;;;1016.43;922.73;;;3.20;99.90;;;;;;4974650;28;20467;-87
2021/10/24 01:13:14;;;;;;;1046.27;952.07;;;3.30;99.90;;;;;;4974613;28;20869;-87
2021/10/24 01:15:41;;;;;;;1028.07;933.77;;;3.40;99.90;;;;;;4973122;28;21028;-87
2021/10/24 01:18:13;;;;;;;1023.07;927.77;;;3.30;99.90;;;;;;4974604;28;20514;-86
2021/10/24 01:20:50;;;;;;;1028.40;933.90;;;3.40;99.90;;;;;;4974556;28;20463;-86
2021/10/24 01:23:24;;;;;;;1018.83;925.27;;;3.20;99.90;;;;;;4974354;28;20482;-85
2021/10/24 01:25:53;;;;;;;1019.67;925.53;;;3.30;99.90;;;;;;4974633;28;20530;-87
2021/10/24 01:28:36;;;;;;;1018.80;924.57;;;3.30;99.90;;;;;;4974150;28;20529;-86
2021/10/24 01:31:08;;;;;;;1017.63;923.60;;;3.40;99.90;;;;;;4973692;28;20451;-86
2021/10/24 01:33:41;;;;;;;1016.23;923.37;;;3.30;99.90;;;;;;4974222;28;20487;-87
2021/10/24 01:36:14;;;;;;;1025.13;932.13;;;3.30;99.90;;;;;;4974218;28;20490;-86
2021/10/24 01:38:50;;;;;;;1039.33;945.33;;;3.20;99.90;;;;;;4973997;28;20965;-86
2021/10/24 01:41:23;;;;;;;1019.43;926.63;;;3.10;99.90;;;;;;4974378;28;20920;-86
2021/10/24 01:43:50;;;;;;;1036.07;942.47;;;3.30;99.90;;;;;;4974018;28;20541;-87
2021/10/24 01:46:17;;;;;;;1025.67;932.93;;;3.30;99.90;;;;;;4973098;28;20550;-87
2021/10/24 01:48:50;;;;;;;1018.00;925.10;;;3.30;99.90;;;;;;4973967;28;20482;-86
2021/10/24 01:51:20;;;;;;;1005.20;913.13;;;3.20;99.90;;;;;;4973995;28;20554;-86
2021/10/24 01:53:48;;;;;;;1021.23;927.83;;;3.20;99.90;;;;;;4974142;28;20459;-87
2021/10/24 01:56:18;;;;;;;1009.90;917.37;;;3.20;99.90;;;;;;4988806;28;20459;-86
2021/10/24 01:58:45;;;;;;;1025.90;933.33;;;3.10;99.90;;;;;;4993403;28;20458;-86
2021/10/24 02:01:16;;;;;;;1013.50;920.83;;;3.20;99.90;;;;;;4992261;28;20516;-86
2021/10/24 02:03:43;;;;;;;1029.37;936.17;;;3.30;99.90;;;;;;4993505;28;20897;-86
2021/10/24 02:06:12;;;;;;;1047.83;954.23;;;3.10;99.90;;;;;;4993321;28;20458;-86
2021/10/24 02:08:42;;;;;;;1053.23;960.23;;;3.10;99.90;;;;;;4993217;28;20556;-87
2021/10/24 02:11:11;;;;;;;1049.20;955.90;;;3.10;99.90;;;;;;4993143;28;20464;-86
2021/10/24 02:13:38;;;;;;;1046.13;953.17;;;3.00;99.90;;;;;;4993227;28;20534;-86
2021/10/24 02:16:06;;;;;;;1046.07;953.23;;;3.00;99.90;;;;;;4992294;28;20489;-86
2021/10/24 02:18:34;;;;;;;1053.80;960.23;;;3.00;99.90;;;;;;4993388;28;20521;-86
2021/10/24 02:21:01;;;;;;;1043.90;950.43;;;3.00;99.90;;;;;;4993132;28;20553;-87
2021/10/24 02:23:30;;;;;;;1048.70;955.00;;;2.90;99.90;;;;;;4993051;28;20489;-86
2021/10/24 02:26:01;;;;;;;1035.73;943.50;;;2.80;99.90;;;;;;4993016;28;21158;-85
2021/10/24 02:28:28;;;;;;;1068.83;974.33;;;2.80;99.90;;;;;;4992926;28;20450;-87
2021/10/24 02:30:55;;;;;;;1058.40;964.10;;;2.80;99.90;;;;;;4992063;28;20541;-87
2021/10/24 02:33:22;;;;;;;1056.03;961.87;;;2.50;99.90;;;;;;4992988;28;20498;-86
2021/10/24 02:35:48;;;;;;;1057.17;962.73;;;2.60;99.90;;;;;;4992963;28;20496;-86
2021/10/24 02:38:20;;;;;;;1048.40;955.80;;;2.60;99.90;;;;;;4993276;28;20462;-87
2021/10/24 02:40:47;;;;;;;1054.60;960.90;;;2.60;99.90;;;;;;4992810;28;20457;-87
2021/10/24 02:43:16;;;;;;;1044.60;952.30;;;2.50;99.90;;;;;;4992862;28;20972;-87
2021/10/24 02:45:44;;;;;;;1042.67;950.23;;;2.60;99.90;;;;;;4991825;28;20458;-87
2021/10/24 02:48:11;;;;;;;1053.03;959.40;;;2.50;99.90;;;;;;4993164;28;20806;-87
2021/10/24 02:50:39;;;;;;;1047.20;955.10;;;2.50;99.90;;;;;;4992727;28;21005;-87
2021/10/24 02:53:06;;;;;;;1059.40;965.60;;;2.40;99.90;;;;;;4992830;28;20454;-87
2021/10/24 02:55:38;;;;;;;1061.43;967.40;;;2.30;99.90;;;;;;4993162;28;20869;-86
2021/10/24 02:58:04;;;;;;;1062.87;967.97;;;2.20;99.90;;;;;;4992838;28;20549;-87
2021/10/24 03:00:35;;;;;;;1067.73;972.43;;;2.20;99.90;;;;;;4991850;28;20462;-86
2021/10/24 03:03:02;;;;;;;1055.33;961.33;;;2.30;99.90;;;;;;4992713;28;20462;-87
2021/10/24 03:05:34;;;;;;;1040.10;945.83;;;2.40;99.90;;;;;;4992967;28;20458;-87
2021/10/24 03:08:01;;;;;;;1038.37;944.90;;;2.10;99.90;;;;;;4994689;28;20462;-87
2021/10/24 03:10:30;;;;;;;1027.80;934.60;;;2.20;99.90;;;;;;4996067;28;20486;-85
2021/10/24 03:12:56;;;;;;;1033.43;939.70;;;2.10;99.90;;;;;;4996307;28;20489;-85
2021/10/24 03:15:25;;;;;;;1034.37;940.73;;;2.20;99.90;;;;;;4995166;28;20458;-87
2021/10/24 03:17:54;;;;;;;1029.50;936.37;;;2.10;99.90;;;;;;4996119;28;20941;-88
2021/10/24 03:20:22;;;;;;;1037.77;942.30;;;2.10;99.90;;;;;;4996306;28;20458;-87
2021/10/24 03:22:49;;;;;;;1031.87;937.43;;;2.10;99.90;;;;;;4995991;28;20489;-86
2021/10/24 03:25:16;;;;;;;1066.27;971.13;;;2.00;99.90;;;;;;4996000;28;20505;-87
2021/10/24 03:27:45;;;;;;;1068.30;974.20;;;2.20;99.90;;;;;;4996073;28;20854;-86
2021/10/24 03:30:12;;;;;;;1061.90;967.90;;;2.10;99.90;;;;;;4995728;28;20490;-86
2021/10/24 03:32:40;;;;;;;1062.77;968.83;;;2.00;99.90;;;;;;4995316;28;20462;-87
2021/10/24 03:35:09;;;;;;;1062.00;967.20;;;2.20;99.90;;;;;;4995878;28;20459;-87
2021/10/24 03:37:43;;;;;;;1055.27;961.30;;;2.20;99.90;;;;;;4995789;28;20462;-89
2021/10/24 03:40:12;;;;;;;1068.23;974.13;;;2.20;99.90;;;;;;4995819;28;20513;-86
2021/10/24 03:42:46;;;;;;;1071.30;976.87;;;2.30;99.90;;;;;;4996030;28;20489;-88
2021/10/24 03:45:16;;;;;;;1065.70;971.07;;;2.20;99.90;;;;;;4986480;28;20470;-86
2021/10/24 03:47:45;;;;;;;1044.37;951.00;;;2.20;99.90;;;;;;4994005;28;20519;-85
2021/10/24 03:50:14;;;;;;;1048.03;955.73;;;2.30;99.90;;;;;;4995644;28;20493;-87
2021/10/24 03:52:45;;;;;;;1046.83;953.93;;;2.20;99.90;;;;;;4995794;28;20818;-87
2021/10/24 03:55:16;;;;;;;1045.93;952.27;;;2.30;99.90;;;;;;4988212;28;20448;-86
2021/10/24 03:57:52;;;;;;;1048.53;954.73;;;2.20;99.90;;;;;;4976133;28;21009;-86
2021/10/24 04:00:19;;;;;;;1041.20;946.50;;;2.20;99.90;;;;;;4975055;28;20874;-87
2021/10/24 04:02:57;;;;;;;1054.00;959.90;;;2.20;99.90;;;;;;4975833;28;20521;-86
2021/10/24 04:05:30;;;;;;;1060.83;967.50;;;2.00;99.90;;;;;;4975950;28;20533;-86
2021/10/24 04:08:07;;;;;;;1070.97;976.60;;;2.00;99.90;;;;;;4976002;28;20465;-86
2021/10/24 04:10:37;;;;;;;1074.13;980.03;;;2.20;99.90;;;;;;4975675;28;20490;-87
2021/10/24 04:13:09;;;;;;;1051.03;959.20;;;2.10;99.90;;;;;;4975673;28;20521;-86
2021/10/24 04:15:39;;;;;;;1048.20;956.80;;;1.90;99.90;;;;;;4974728;28;20506;-86
2021/10/24 04:18:09;;;;;;;1040.13;948.70;;;1.80;99.90;;;;;;4975369;28;20837;-84
2021/10/24 04:20:49;;;;;;;1047.40;954.70;;;1.80;99.90;;;;;;4975611;28;20526;-84
2021/10/24 04:23:17;;;;;;;1073.60;978.00;;;1.70;99.90;;;;;;4975489;28;20459;-84
2021/10/24 04:26:05;;;;;;;1074.77;979.63;;;1.70;99.90;;;;;;4978036;28;20483;-84
2021/10/24 04:28:45;;;;;;;;;;;;;;;;;;;;;
2021/10/24 04:31:19;;;;;;;1088.40;992.60;;;1.70;99.90;;;;;;4993301;28;20985;-84
2021/10/24 04:33:46;;;;;;;1087.27;991.97;;;1.80;99.90;;;;;;4994736;28;20840;-84
2021/10/24 04:36:14;;;;;;;1070.63;977.60;;;1.70;99.90;;;;;;4994664;28;20470;-89
2021/10/24 04:38:41;;;;;;;1048.17;957.53;;;1.70;99.90;;;;;;4995081;28;20463;-90
2021/10/24 04:41:08;;;;;;;1038.50;949.30;;;1.60;99.90;;;;;;4991444;28;20451;-84
2021/10/24 04:43:40;;;;;;;1030.57;942.07;;;1.60;99.90;;;;;;4993542;28;20494;-87
2021/10/24 04:46:14;;;;;;;1060.60;969.17;;;1.40;99.90;;;;;;4994041;28;20454;-87
2021/10/24 04:48:43;;;;;;;1048.23;956.43;;;1.40;99.90;;;;;;4997018;28;21005;-87
2021/10/24 04:51:13;;;;;;;1055.10;963.97;;;1.40;99.90;;;;;;4994305;28;20500;-86
2021/10/24 04:53:45;;;;;;;1069.43;975.80;;;1.30;99.90;;;;;;4994220;28;20466;-85
2021/10/24 04:56:17;;;;;;;1070.10;975.20;;;1.20;99.90;;;;;;4979505;28;20459;-87
2021/10/24 04:58:46;;;;;;;1066.67;973.20;;;1.20;99.90;;;;;;4974839;28;20494;-86
2021/10/24 05:01:13;;;;;;;1063.97;970.65;;;1.10;99.90;;;;;;4974244;28;20553;-87
2021/10/24 05:03:40;;;;;;;1052.70;959.57;;;1.10;99.90;;;;;;4975700;28;20291;-86
2021/10/24 05:06:07;;;;;;;1059.30;964.60;;;1.20;99.90;;;;;;4976760;28;20896;-89
2021/10/24 05:08:34;;;;;;;1037.33;945.00;;;1.20;99.90;;;;;;4976165;28;20463;-86
2021/10/24 05:11:06;;;;;;;1039.47;948.87;;;1.10;99.90;;;;;;4975096;28;21016;-90
2021/10/24 05:13:33;;;;;;;1047.93;955.40;;;1.10;99.90;;;;;;4974727;28;20529;-84
2021/10/24 05:16:02;;;;;;;1046.77;955.30;;;1.20;99.90;;;;;;4974686;28;20451;-86
2021/10/24 05:19:00;;;;;;;1074.30;980.07;;;1.20;99.90;;;;;;4976510;28;20454;-88
2021/10/24 05:21:38;;;;;;;1077.47;982.37;;;1.30;99.90;;;;;;4922530;28;20455;-87
2021/10/24 05:24:06;;;;;;;1075.77;982.53;;;1.30;99.90;;;;;;4974787;28;20501;-88
2021/10/24 05:26:49;;;;;;;1075.47;981.93;;;1.30;99.90;;;;;;4975438;28;20447;-88
2021/10/24 05:29:26;;;;;;;1073.20;979.37;;;1.20;99.90;;;;;;4975172;28;21000;-89
2021/10/24 05:40:54;;;;;;;1083.07;989.83;;;1.00;99.90;;;;;;4974926;28;20957;-88
2021/10/24 05:43:28;;;;;;;1075.77;981.97;;;0.90;99.90;;;;;;4977629;28;20953;-88
2021/10/24 05:45:59;;;;;;;1087.13;994.03;;;1.00;99.90;;;;;;4985943;28;20933;-86
2021/10/24 05:48:28;;;;;;;1074.17;981.97;;;0.80;99.90;;;;;;4994143;28;20477;-90
2021/10/24 05:51:09;;;;;;;1064.80;973.00;;;0.80;99.90;;;;;;4994199;28;20544;-86
2021/10/24 05:53:42;;;;;;;1054.50;962.40;;;0.90;99.90;;;;;;4994239;28;20476;-88
2021/10/24 05:56:13;;;;;;;1080.87;985.90;;;0.80;99.90;;;;;;4979585;28;20469;-88
2021/10/24 05:58:49;;;;;;;1069.03;977.43;;;0.90;99.90;;;;;;4974596;28;20466;-90
2021/10/24 06:01:19;;;;;;;1066.27;972.87;;;1.00;99.90;;;;;;4982477;28;20553;-88
2021/10/24 06:03:48;;;;;;;1075.67;981.97;;;1.10;99.90;;;;;;4994840;28;20454;-88
2021/10/24 06:06:15;;;;;;;1069.97;977.10;;;1.30;99.90;;;;;;4994264;28;20862;-88
2021/10/24 06:08:42;;;;;;;1060.50;969.20;;;1.40;99.90;;;;;;4994973;28;20541;-89
2021/10/24 06:11:20;;;;;;;1051.93;961.03;;;1.50;99.90;;;;;;4994909;28;20482;-86
2021/10/24 06:13:51;;;;;;;1069.53;976.40;;;1.40;99.90;;;;;;4995695;28;20465;-90
2021/10/24 06:16:18;;;;;;;1053.30;960.10;;;1.20;99.90;;;;;;4993447;28;20516;-88
2021/10/24 06:18:45;;;;;;;1039.37;948.03;;;1.10;99.90;;;;;;4993509;28;20462;-90
2021/10/24 06:21:16;;;;;;;1034.50;944.60;;;1.20;99.90;;;;;;4993438;28;20485;-89
2021/10/24 06:23:44;;;;;;;1029.40;939.43;;;1.10;99.90;;;;;;4993066;28;20482;-89
2021/10/24 06:26:23;;;;;;;1049.67;957.23;;;1.30;99.90;;;;;;4993090;28;20458;-85
2021/10/24 06:28:51;;;;;;;1041.57;950.13;;;1.20;99.90;;;;;;4993475;28;20490;-90
2021/10/24 06:31:18;;;;;;;1041.27;947.97;;;1.20;99.90;;;;;;4994306;28;20481;-90
2021/10/24 06:33:45;;;;;;;1039.03;947.15;;;1.20;99.90;;;;;;4995532;28;20454;-88
2021/10/24 06:36:12;;;;;;;1035.27;941.57;;;1.40;99.90;;;;;;4995617;28;20195;-87
2021/10/24 06:38:40;;;;;;;1030.30;939.80;;;1.50;99.90;;;;;;4994088;28;20988;-89
2021/10/24 06:41:07;;;;;;;1030.33;939.13;;;1.60;99.90;;;;;;4993614;28;20466;-86
2021/10/24 06:43:34;;;;;;;1032.50;940.93;;;1.70;99.90;;;;;;4996687;28;20473;-86
2021/10/24 06:46:03;;;;;;;1045.53;955.23;;;1.90;99.90;;;;;;4994127;28;21012;-87
2021/10/24 06:48:32;;;;;;;1038.30;948.90;;;1.90;99.90;;;;;;4985516;28;20537;-87
2021/10/24 06:50:58;;;;;;;1042.40;951.70;;;1.80;99.90;;;;;;4996547;28;20552;-88
2021/10/24 06:53:25;;;;;;;1037.97;948.13;;;1.90;99.90;;;;;;4996445;28;20472;-85
2021/10/24 06:55:52;;;;;;;1032.80;943.27;;;2.00;99.90;;;;;;4983970;28;20519;-88
2021/10/24 06:58:19;;;;;;;1029.00;939.70;;;2.10;99.90;;;;;;4977039;28;20461;-87
2021/10/24 07:00:46;;;;;;;1026.77;938.87;;;2.20;99.90;;;;;;4976047;28;20510;-87
2021/10/24 07:03:14;;;;;;;1039.70;949.57;;;2.50;99.90;;;;;;4976902;28;20497;-87
2021/10/24 07:05:42;;;;;;;1027.33;938.30;;;2.50;99.90;;;;;;4977298;28;20569;-90
2021/10/24 07:08:35;;;;;;;;;;;;;;;;;;;;;
2021/10/24 07:11:06;;;;;;;1011.30;921.93;;;2.80;99.90;;;;;;4975191;28;21001;-91
2021/10/24 07:13:33;;;;;;;984.87;897.60;;;2.90;99.90;;;;;;4977814;28;20466;-88
2021/10/24 07:16:00;;;;;;;978.60;892.30;;;3.10;99.90;;;;;;4976954;28;20478;-90
2021/10/24 07:18:32;;;;;;;976.60;890.83;;;3.20;99.90;;;;;;4977605;28;20506;-90
2021/10/24 07:20:59;;;;;;;978.40;891.97;;;3.40;99.90;;;;;;4977505;28;20910;-90
2021/10/24 07:23:26;;;;;;;966.30;881.37;;;3.50;99.90;;;;;;4978425;28;20993;-90
2021/10/24 07:25:53;;;;;;;952.43;869.33;;;3.70;99.90;;;;;;4981531;28;20455;-91
2021/10/24 07:28:20;;;;;;;938.90;857.33;;;3.80;99.90;;;;;;4982612;28;20463;-89
2021/10/24 07:30:55;;;;;;;931.63;850.53;;;3.90;99.90;;;;;;4982376;28;20498;-92
2021/10/24 07:33:22;;;;;;;915.20;835.47;;;4.00;99.90;;;;;;4983405;28;20454;-91
2021/10/24 07:35:50;;;;;;;910.47;830.23;;;4.10;99.90;;;;;;4987496;28;20944;-91
2021/10/24 07:38:18;;;;;;;908.17;827.40;;;4.20;99.90;;;;;;5001523;28;20442;-89
2021/10/24 07:40:52;;;;;;;909.63;828.50;;;4.20;99.90;;;;;;4997124;28;20549;-89
2021/10/24 08:11:34;;;;;;;841.97;766.27;;;5.20;99.90;;;;;;4987442;28;20270;-89
2021/10/24 08:23:22;;;;;;;813.90;740.27;;;5.80;99.90;;;;;;4923959;29;21054;-93
2021/10/24 08:27:13;;;;;;;;;;;;;;;;;;;;;
2021/10/24 08:30:02;;;;;;;816.33;743.03;;;5.80;99.90;;;;;;4807258;29;20458;-91
2021/10/24 12:30:33;;;;;;;6.15;2.42;;;19.60;11.90;;;;;;6169219;23;20519;31
2021/10/24 18:02:58;;;;;;;11.30;7.33;;;8.40;92.30;;;;;;6026321;23;21416;-86
